sensor_id;sensor_type;location;lat;lon;timestamp;temperature;humidity
6110;DHT22;3085;49.444;11.054;2023-06-26T00:00:47;24.20;97.10
6110;DHT22;3085;49.444;11.054;2023-06-26T00:03:13;24.10;97.10
6110;DHT22;3085;49.444;11.054;2023-06-26T00:05:40;24.00;97.10
6110;DHT22;3085;49.444;11.054;2023-06-26T00:08:07;24.00;97.20
6110;DHT22;3085;49.444;11.054;2023-06-26T00:10:35;24.00;97.30
6110;DHT22;3085;49.444;11.054;2023-06-26T00:13:02;24.00;97.30
6110;DHT22;3085;49.444;11.054;2023-06-26T00:15:29;23.80;97.40
6110;DHT22;3085;49.444;11.054;2023-06-26T00:17:57;23.80;97.50
6110;DHT22;3085;49.444;11.054;2023-06-26T00:20:24;23.70;97.70
6110;DHT22;3085;49.444;11.054;2023-06-26T00:22:51;23.60;97.70
6110;DHT22;3085;49.444;11.054;2023-06-26T00:25:19;23.70;97.80
6110;DHT22;3085;49.444;11.054;2023-06-26T00:27:47;23.60;97.80
6110;DHT22;3085;49.444;11.054;2023-06-26T00:30:14;23.50;97.80
6110;DHT22;3085;49.444;11.054;2023-06-26T00:32:41;23.40;97.90
6110;DHT22;3085;49.444;11.054;2023-06-26T00:35:09;23.40;98.10
6110;DHT22;3085;49.444;11.054;2023-06-26T00:37:36;23.40;98.10
6110;DHT22;3085;49.444;11.054;2023-06-26T00:40:03;23.40;98.20
6110;DHT22;3085;49.444;11.054;2023-06-26T00:42:31;23.30;98.20
6110;DHT22;3085;49.444;11.054;2023-06-26T00:44:59;23.30;98.40
6110;DHT22;3085;49.444;11.054;2023-06-26T00:47:26;23.30;98.40
6110;DHT22;3085;49.444;11.054;2023-06-26T00:49:54;23.30;98.50
6110;DHT22;3085;49.444;11.054;2023-06-26T00:52:22;23.20;98.50
6110;DHT22;3085;49.444;11.054;2023-06-26T00:54:49;23.20;98.50
6110;DHT22;3085;49.444;11.054;2023-06-26T00:57:16;23.10;98.60
6110;DHT22;3085;49.444;11.054;2023-06-26T00:59:43;23.20;98.60
6110;DHT22;3085;49.444;11.054;2023-06-26T01:02:11;23.10;98.60
6110;DHT22;3085;49.444;11.054;2023-06-26T01:04:46;23.10;98.70
6110;DHT22;3085;49.444;11.054;2023-06-26T01:07:13;23.10;98.70
6110;DHT22;3085;49.444;11.054;2023-06-26T01:09:40;23.00;98.70
6110;DHT22;3085;49.444;11.054;2023-06-26T01:12:07;22.90;98.80
6110;DHT22;3085;49.444;11.054;2023-06-26T01:14:34;22.90;99.00
6110;DHT22;3085;49.444;11.054;2023-06-26T01:17:02;22.90;98.90
6110;DHT22;3085;49.444;11.054;2023-06-26T01:19:31;22.90;99.10
6110;DHT22;3085;49.444;11.054;2023-06-26T01:22:02;22.80;99.20
6110;DHT22;3085;49.444;11.054;2023-06-26T01:24:44;22.80;99.20
6110;DHT22;3085;49.444;11.054;2023-06-26T01:27:16;22.80;99.20
6110;DHT22;3085;49.444;11.054;2023-06-26T01:29:45;22.90;99.10
6110;DHT22;3085;49.444;11.054;2023-06-26T01:32:12;22.80;99.20
6110;DHT22;3085;49.444;11.054;2023-06-26T01:34:39;22.80;99.30
6110;DHT22;3085;49.444;11.054;2023-06-26T01:37:06;22.70;99.40
6110;DHT22;3085;49.444;11.054;2023-06-26T01:39:32;22.60;99.50
6110;DHT22;3085;49.444;11.054;2023-06-26T01:41:59;22.70;99.70
6110;DHT22;3085;49.444;11.054;2023-06-26T01:44:29;22.80;99.90
6110;DHT22;3085;49.444;11.054;2023-06-26T01:47:01;22.60;99.80
6110;DHT22;3085;49.444;11.054;2023-06-26T01:49:41;22.70;99.90
6110;DHT22;3085;49.444;11.054;2023-06-26T01:52:16;22.60;99.90
6110;DHT22;3085;49.444;11.054;2023-06-26T01:54:52;22.60;99.90
6110;DHT22;3085;49.444;11.054;2023-06-26T01:57:20;22.60;99.90
6110;DHT22;3085;49.444;11.054;2023-06-26T01:59:51;22.60;99.90
6110;DHT22;3085;49.444;11.054;2023-06-26T02:02:18;22.60;99.90
6110;DHT22;3085;49.444;11.054;2023-06-26T02:04:45;22.50;99.90
6110;DHT22;3085;49.444;11.054;2023-06-26T02:07:14;22.50;99.90
6110;DHT22;3085;49.444;11.054;2023-06-26T02:09:41;22.50;99.90
6110;DHT22;3085;49.444;11.054;2023-06-26T02:12:08;22.60;99.90
6110;DHT22;3085;49.444;11.054;2023-06-26T02:14:35;22.50;99.90
6110;DHT22;3085;49.444;11.054;2023-06-26T02:17:03;22.50;99.90
6110;DHT22;3085;49.444;11.054;2023-06-26T02:19:30;22.40;99.90
6110;DHT22;3085;49.444;11.054;2023-06-26T02:21:57;22.40;99.90
6110;DHT22;3085;49.444;11.054;2023-06-26T02:24:23;22.40;99.90
6110;DHT22;3085;49.444;11.054;2023-06-26T02:26:55;22.40;99.90
6110;DHT22;3085;49.444;11.054;2023-06-26T02:29:22;22.30;99.90
6110;DHT22;3085;49.444;11.054;2023-06-26T02:31:49;22.40;99.90
6110;DHT22;3085;49.444;11.054;2023-06-26T02:34:17;22.30;99.90
6110;DHT22;3085;49.444;11.054;2023-06-26T02:36:43;22.30;99.90
6110;DHT22;3085;49.444;11.054;2023-06-26T02:39:10;22.20;99.90
6110;DHT22;3085;49.444;11.054;2023-06-26T02:41:37;22.30;99.90
6110;DHT22;3085;49.444;11.054;2023-06-26T02:44:04;22.20;99.90
6110;DHT22;3085;49.444;11.054;2023-06-26T02:46:30;22.20;99.90
6110;DHT22;3085;49.444;11.054;2023-06-26T02:48:57;22.20;99.90
6110;DHT22;3085;49.444;11.054;2023-06-26T02:51:25;22.20;99.90
6110;DHT22;3085;49.444;11.054;2023-06-26T02:53:52;22.10;99.90
6110;DHT22;3085;49.444;11.054;2023-06-26T02:56:18;21.20;99.90
6110;DHT22;3085;49.444;11.054;2023-06-26T02:58:45;22.10;99.90
6110;DHT22;3085;49.444;11.054;2023-06-26T03:01:12;22.10;99.90
6110;DHT22;3085;49.444;11.054;2023-06-26T03:03:41;22.10;99.90
6110;DHT22;3085;49.444;11.054;2023-06-26T03:06:08;22.10;99.90
6110;DHT22;3085;49.444;11.054;2023-06-26T03:08:37;21.90;99.90
6110;DHT22;3085;49.444;11.054;2023-06-26T03:11:05;22.00;99.90
6110;DHT22;3085;49.444;11.054;2023-06-26T03:13:32;21.90;99.90
6110;DHT22;3085;49.444;11.054;2023-06-26T03:15:59;21.80;99.90
6110;DHT22;3085;49.444;11.054;2023-06-26T03:18:26;21.80;99.90
6110;DHT22;3085;49.444;11.054;2023-06-26T03:20:54;21.80;99.90
6110;DHT22;3085;49.444;11.054;2023-06-26T03:23:21;21.80;99.90
6110;DHT22;3085;49.444;11.054;2023-06-26T03:25:49;21.90;99.90
6110;DHT22;3085;49.444;11.054;2023-06-26T03:28:16;21.80;99.90
6110;DHT22;3085;49.444;11.054;2023-06-26T03:30:43;21.80;99.90
6110;DHT22;3085;49.444;11.054;2023-06-26T03:33:10;21.70;99.90
6110;DHT22;3085;49.444;11.054;2023-06-26T03:35:37;21.70;99.90
6110;DHT22;3085;49.444;11.054;2023-06-26T03:38:05;21.60;99.90
6110;DHT22;3085;49.444;11.054;2023-06-26T03:40:32;21.60;99.90
6110;DHT22;3085;49.444;11.054;2023-06-26T03:43:00;21.60;99.90
6110;DHT22;3085;49.444;11.054;2023-06-26T03:45:27;21.60;99.90
6110;DHT22;3085;49.444;11.054;2023-06-26T03:47:53;21.40;99.90
6110;DHT22;3085;49.444;11.054;2023-06-26T03:50:20;21.50;99.90
6110;DHT22;3085;49.444;11.054;2023-06-26T03:52:47;21.50;99.90
6110;DHT22;3085;49.444;11.054;2023-06-26T03:55:15;21.50;99.90
6110;DHT22;3085;49.444;11.054;2023-06-26T03:57:42;21.50;99.90
6110;DHT22;3085;49.444;11.054;2023-06-26T04:00:11;21.50;99.90
6110;DHT22;3085;49.444;11.054;2023-06-26T04:02:39;21.50;99.90
6110;DHT22;3085;49.444;11.054;2023-06-26T04:05:06;21.50;99.90
6110;DHT22;3085;49.444;11.054;2023-06-26T04:07:33;21.50;99.90
6110;DHT22;3085;49.444;11.054;2023-06-26T04:10:00;21.50;99.90
6110;DHT22;3085;49.444;11.054;2023-06-26T04:12:29;21.50;99.90
6110;DHT22;3085;49.444;11.054;2023-06-26T04:14:56;21.60;99.90
6110;DHT22;3085;49.444;11.054;2023-06-26T04:17:24;21.60;99.90
6110;DHT22;3085;49.444;11.054;2023-06-26T04:19:51;21.60;99.90
6110;DHT22;3085;49.444;11.054;2023-06-26T04:22:18;21.60;99.90
6110;DHT22;3085;49.444;11.054;2023-06-26T04:24:45;21.70;99.90
6110;DHT22;3085;49.444;11.054;2023-06-26T04:27:12;21.70;99.90
6110;DHT22;3085;49.444;11.054;2023-06-26T04:29:39;21.70;99.90
6110;DHT22;3085;49.444;11.054;2023-06-26T04:32:09;21.60;99.90
6110;DHT22;3085;49.444;11.054;2023-06-26T04:34:37;21.60;99.90
6110;DHT22;3085;49.444;11.054;2023-06-26T04:37:06;21.60;99.90
6110;DHT22;3085;49.444;11.054;2023-06-26T04:39:35;21.60;99.90
6110;DHT22;3085;49.444;11.054;2023-06-26T04:42:02;21.60;99.90
6110;DHT22;3085;49.444;11.054;2023-06-26T04:44:31;21.70;99.90
6110;DHT22;3085;49.444;11.054;2023-06-26T04:46:58;21.70;99.90
6110;DHT22;3085;49.444;11.054;2023-06-26T04:49:24;21.70;99.90
6110;DHT22;3085;49.444;11.054;2023-06-26T04:51:54;21.80;99.90
6110;DHT22;3085;49.444;11.054;2023-06-26T04:54:21;21.80;99.90
6110;DHT22;3085;49.444;11.054;2023-06-26T04:56:49;21.90;99.90
6110;DHT22;3085;49.444;11.054;2023-06-26T04:59:16;21.90;99.90
6110;DHT22;3085;49.444;11.054;2023-06-26T05:01:44;22.00;99.90
6110;DHT22;3085;49.444;11.054;2023-06-26T05:04:14;21.90;99.90
6110;DHT22;3085;49.444;11.054;2023-06-26T05:06:45;21.90;99.90
6110;DHT22;3085;49.444;11.054;2023-06-26T05:09:13;21.90;99.90
6110;DHT22;3085;49.444;11.054;2023-06-26T05:11:40;22.00;99.90
6110;DHT22;3085;49.444;11.054;2023-06-26T05:14:06;22.00;99.90
6110;DHT22;3085;49.444;11.054;2023-06-26T05:16:34;22.10;99.90
6110;DHT22;3085;49.444;11.054;2023-06-26T05:19:02;22.20;99.90
6110;DHT22;3085;49.444;11.054;2023-06-26T05:21:29;22.20;99.90
6110;DHT22;3085;49.444;11.054;2023-06-26T05:23:57;22.30;99.90
6110;DHT22;3085;49.444;11.054;2023-06-26T05:26:26;22.30;99.90
6110;DHT22;3085;49.444;11.054;2023-06-26T05:28:54;22.30;99.90
6110;DHT22;3085;49.444;11.054;2023-06-26T05:31:22;22.30;99.90
6110;DHT22;3085;49.444;11.054;2023-06-26T05:33:49;22.40;99.90
6110;DHT22;3085;49.444;11.054;2023-06-26T05:36:18;22.50;99.90
6110;DHT22;3085;49.444;11.054;2023-06-26T05:38:46;22.50;99.90
6110;DHT22;3085;49.444;11.054;2023-06-26T05:41:14;22.50;99.90
6110;DHT22;3085;49.444;11.054;2023-06-26T05:43:42;22.50;99.90
6110;DHT22;3085;49.444;11.054;2023-06-26T05:46:09;22.70;99.90
6110;DHT22;3085;49.444;11.054;2023-06-26T05:48:36;22.70;99.90
6110;DHT22;3085;49.444;11.054;2023-06-26T05:51:03;22.80;99.90
6110;DHT22;3085;49.444;11.054;2023-06-26T05:53:30;22.90;99.90
6110;DHT22;3085;49.444;11.054;2023-06-26T05:55:58;23.00;99.90
6110;DHT22;3085;49.444;11.054;2023-06-26T05:58:26;23.00;99.90
6110;DHT22;3085;49.444;11.054;2023-06-26T06:00:55;23.10;99.90
6110;DHT22;3085;49.444;11.054;2023-06-26T06:03:22;23.10;99.90
6110;DHT22;3085;49.444;11.054;2023-06-26T06:05:49;23.10;99.90
6110;DHT22;3085;49.444;11.054;2023-06-26T06:08:15;23.10;99.90
6110;DHT22;3085;49.444;11.054;2023-06-26T06:10:42;23.20;99.90
6110;DHT22;3085;49.444;11.054;2023-06-26T06:13:09;23.20;99.90
6110;DHT22;3085;49.444;11.054;2023-06-26T06:15:35;23.30;99.90
6110;DHT22;3085;49.444;11.054;2023-06-26T06:18:04;23.40;99.90
6110;DHT22;3085;49.444;11.054;2023-06-26T06:20:30;23.30;99.90
6110;DHT22;3085;49.444;11.054;2023-06-26T06:22:57;23.40;99.90
6110;DHT22;3085;49.444;11.054;2023-06-26T06:25:24;23.30;99.90
6110;DHT22;3085;49.444;11.054;2023-06-26T06:27:50;23.40;99.90
6110;DHT22;3085;49.444;11.054;2023-06-26T06:30:17;23.50;99.90
6110;DHT22;3085;49.444;11.054;2023-06-26T06:32:44;23.50;99.90
6110;DHT22;3085;49.444;11.054;2023-06-26T06:35:12;23.70;99.90
6110;DHT22;3085;49.444;11.054;2023-06-26T06:37:39;23.80;99.90
6110;DHT22;3085;49.444;11.054;2023-06-26T06:40:06;23.80;99.90
6110;DHT22;3085;49.444;11.054;2023-06-26T06:42:33;24.00;99.90
6110;DHT22;3085;49.444;11.054;2023-06-26T06:45:02;24.00;99.90
6110;DHT22;3085;49.444;11.054;2023-06-26T06:47:28;24.00;99.90
6110;DHT22;3085;49.444;11.054;2023-06-26T06:49:55;24.20;99.90
6110;DHT22;3085;49.444;11.054;2023-06-26T06:52:23;24.20;99.90
6110;DHT22;3085;49.444;11.054;2023-06-26T06:54:54;24.30;99.90
6110;DHT22;3085;49.444;11.054;2023-06-26T06:57:21;24.40;99.90
6110;DHT22;3085;49.444;11.054;2023-06-26T06:59:48;24.50;99.90
6110;DHT22;3085;49.444;11.054;2023-06-26T07:02:16;24.60;99.90
6110;DHT22;3085;49.444;11.054;2023-06-26T07:04:43;24.60;99.60
6110;DHT22;3085;49.444;11.054;2023-06-26T07:07:11;24.60;99.80
6110;DHT22;3085;49.444;11.054;2023-06-26T07:09:40;24.70;99.50
6110;DHT22;3085;49.444;11.054;2023-06-26T07:12:07;24.60;99.10
6110;DHT22;3085;49.444;11.054;2023-06-26T07:14:34;24.70;99.40
6110;DHT22;3085;49.444;11.054;2023-06-26T07:17:00;24.70;99.10
6110;DHT22;3085;49.444;11.054;2023-06-26T07:19:27;24.80;99.20
6110;DHT22;3085;49.444;11.054;2023-06-26T07:21:54;24.80;98.90
6110;DHT22;3085;49.444;11.054;2023-06-26T07:24:20;24.90;99.10
6110;DHT22;3085;49.444;11.054;2023-06-26T07:26:48;25.00;99.00
6110;DHT22;3085;49.444;11.054;2023-06-26T07:29:15;25.10;99.20
6110;DHT22;3085;49.444;11.054;2023-06-26T07:31:41;25.30;98.90
6110;DHT22;3085;49.444;11.054;2023-06-26T07:34:10;25.40;98.50
6110;DHT22;3085;49.444;11.054;2023-06-26T07:36:37;25.40;98.40
6110;DHT22;3085;49.444;11.054;2023-06-26T07:39:03;25.50;98.20
6110;DHT22;3085;49.444;11.054;2023-06-26T07:41:30;25.00;97.40
6110;DHT22;3085;49.444;11.054;2023-06-26T07:43:59;25.60;97.70
6110;DHT22;3085;49.444;11.054;2023-06-26T07:46:25;25.80;98.00
6110;DHT22;3085;49.444;11.054;2023-06-26T07:48:52;25.80;97.80
6110;DHT22;3085;49.444;11.054;2023-06-26T07:51:19;25.80;98.00
6110;DHT22;3085;49.444;11.054;2023-06-26T07:53:46;25.90;97.70
6110;DHT22;3085;49.444;11.054;2023-06-26T07:56:13;26.00;97.80
6110;DHT22;3085;49.444;11.054;2023-06-26T07:58:39;26.10;97.50
6110;DHT22;3085;49.444;11.054;2023-06-26T08:01:08;26.20;97.60
6110;DHT22;3085;49.444;11.054;2023-06-26T08:03:34;26.30;97.30
6110;DHT22;3085;49.444;11.054;2023-06-26T08:06:01;26.30;97.00
6110;DHT22;3085;49.444;11.054;2023-06-26T08:08:28;26.30;97.00
6110;DHT22;3085;49.444;11.054;2023-06-26T08:10:55;26.40;97.20
6110;DHT22;3085;49.444;11.054;2023-06-26T08:13:22;26.50;96.90
6110;DHT22;3085;49.444;11.054;2023-06-26T08:15:49;26.60;96.60
6110;DHT22;3085;49.444;11.054;2023-06-26T08:18:17;26.60;96.80
6110;DHT22;3085;49.444;11.054;2023-06-26T08:20:44;26.70;96.80
6110;DHT22;3085;49.444;11.054;2023-06-26T08:23:11;26.80;96.50
6110;DHT22;3085;49.444;11.054;2023-06-26T08:25:38;26.90;96.70
6110;DHT22;3085;49.444;11.054;2023-06-26T08:28:04;27.00;96.50
6110;DHT22;3085;49.444;11.054;2023-06-26T08:30:32;27.00;96.10
6110;DHT22;3085;49.444;11.054;2023-06-26T08:32:59;27.10;96.20
6110;DHT22;3085;49.444;11.054;2023-06-26T08:35:27;27.10;95.90
6110;DHT22;3085;49.444;11.054;2023-06-26T08:37:53;27.20;95.80
6110;DHT22;3085;49.444;11.054;2023-06-26T08:40:21;27.30;95.80
6110;DHT22;3085;49.444;11.054;2023-06-26T08:42:48;27.40;96.00
6110;DHT22;3085;49.444;11.054;2023-06-26T08:45:18;27.50;95.50
6110;DHT22;3085;49.444;11.054;2023-06-26T08:47:49;27.60;95.60
6110;DHT22;3085;49.444;11.054;2023-06-26T08:50:20;27.60;95.10
6110;DHT22;3085;49.444;11.054;2023-06-26T08:52:54;27.70;94.60
6110;DHT22;3085;49.444;11.054;2023-06-26T08:55:23;27.80;94.70
6110;DHT22;3085;49.444;11.054;2023-06-26T08:57:52;27.90;94.40
6110;DHT22;3085;49.444;11.054;2023-06-26T09:00:20;28.00;94.10
6110;DHT22;3085;49.444;11.054;2023-06-26T09:02:47;28.10;93.60
6110;DHT22;3085;49.444;11.054;2023-06-26T09:05:14;28.10;94.00
6110;DHT22;3085;49.444;11.054;2023-06-26T09:07:41;28.10;93.80
6110;DHT22;3085;49.444;11.054;2023-06-26T09:10:10;28.10;93.50
6110;DHT22;3085;49.444;11.054;2023-06-26T09:12:37;28.20;93.10
6110;DHT22;3085;49.444;11.054;2023-06-26T09:15:05;28.40;92.80
6110;DHT22;3085;49.444;11.054;2023-06-26T09:17:38;28.40;92.30
6110;DHT22;3085;49.444;11.054;2023-06-26T09:20:06;28.40;92.00
6110;DHT22;3085;49.444;11.054;2023-06-26T09:22:36;28.50;92.10
6110;DHT22;3085;49.444;11.054;2023-06-26T09:25:05;28.50;92.00
6110;DHT22;3085;49.444;11.054;2023-06-26T09:27:34;28.50;91.40
6110;DHT22;3085;49.444;11.054;2023-06-26T09:30:01;28.50;91.40
6110;DHT22;3085;49.444;11.054;2023-06-26T09:32:29;28.70;91.50
6110;DHT22;3085;49.444;11.054;2023-06-26T09:34:56;28.50;91.50
6110;DHT22;3085;49.444;11.054;2023-06-26T09:37:26;28.60;91.70
6110;DHT22;3085;49.444;11.054;2023-06-26T09:39:52;28.60;91.30
6110;DHT22;3085;49.444;11.054;2023-06-26T09:42:19;28.50;90.90
6110;DHT22;3085;49.444;11.054;2023-06-26T09:44:48;28.60;91.40
6110;DHT22;3085;49.444;11.054;2023-06-26T09:47:16;28.70;91.10
6110;DHT22;3085;49.444;11.054;2023-06-26T09:49:43;28.70;91.10
6110;DHT22;3085;49.444;11.054;2023-06-26T09:52:13;28.70;90.70
6110;DHT22;3085;49.444;11.054;2023-06-26T09:54:41;28.70;90.10
6110;DHT22;3085;49.444;11.054;2023-06-26T09:57:11;28.80;90.20
6110;DHT22;3085;49.444;11.054;2023-06-26T09:59:39;28.90;89.50
6110;DHT22;3085;49.444;11.054;2023-06-26T10:02:07;28.90;88.70
6110;DHT22;3085;49.444;11.054;2023-06-26T10:04:35;28.90;88.90
6110;DHT22;3085;49.444;11.054;2023-06-26T10:07:05;28.90;88.90
6110;DHT22;3085;49.444;11.054;2023-06-26T10:09:33;29.10;87.20
6110;DHT22;3085;49.444;11.054;2023-06-26T10:12:03;29.10;87.00
6110;DHT22;3085;49.444;11.054;2023-06-26T10:14:34;29.10;85.80
6110;DHT22;3085;49.444;11.054;2023-06-26T10:17:03;29.10;87.00
6110;DHT22;3085;49.444;11.054;2023-06-26T10:19:32;29.10;87.10
6110;DHT22;3085;49.444;11.054;2023-06-26T10:22:00;29.20;86.20
6110;DHT22;3085;49.444;11.054;2023-06-26T10:24:31;29.30;87.40
6110;DHT22;3085;49.444;11.054;2023-06-26T10:27:03;29.30;87.60
6110;DHT22;3085;49.444;11.054;2023-06-26T10:29:31;29.80;87.40
6110;DHT22;3085;49.444;11.054;2023-06-26T10:32:00;29.20;87.30
6110;DHT22;3085;49.444;11.054;2023-06-26T10:34:31;29.30;87.00
6110;DHT22;3085;49.444;11.054;2023-06-26T10:37:01;29.50;85.70
6110;DHT22;3085;49.444;11.054;2023-06-26T10:39:46;29.50;86.10
6110;DHT22;3085;49.444;11.054;2023-06-26T10:42:15;29.50;85.30
6110;DHT22;3085;49.444;11.054;2023-06-26T10:44:42;29.50;84.60
6110;DHT22;3085;49.444;11.054;2023-06-26T10:47:10;29.40;84.00
6110;DHT22;3085;49.444;11.054;2023-06-26T10:49:47;29.50;84.20
6110;DHT22;3085;49.444;11.054;2023-06-26T10:52:16;29.70;82.80
6110;DHT22;3085;49.444;11.054;2023-06-26T10:54:43;29.60;82.40
6110;DHT22;3085;49.444;11.054;2023-06-26T10:57:11;29.70;82.10
6110;DHT22;3085;49.444;11.054;2023-06-26T10:59:40;29.60;81.30
6110;DHT22;3085;49.444;11.054;2023-06-26T11:02:07;29.70;80.90
6110;DHT22;3085;49.444;11.054;2023-06-26T11:04:38;29.80;80.10
6110;DHT22;3085;49.444;11.054;2023-06-26T11:07:16;29.70;78.50
6110;DHT22;3085;49.444;11.054;2023-06-26T11:09:55;29.60;79.60
6110;DHT22;3085;49.444;11.054;2023-06-26T11:12:36;29.70;80.10
6110;DHT22;3085;49.444;11.054;2023-06-26T11:15:04;29.80;80.50
6110;DHT22;3085;49.444;11.054;2023-06-26T11:17:34;29.70;78.80
6110;DHT22;3085;49.444;11.054;2023-06-26T11:20:01;29.70;79.00
6110;DHT22;3085;49.444;11.054;2023-06-26T11:22:34;29.80;78.50
6110;DHT22;3085;49.444;11.054;2023-06-26T11:25:01;29.80;77.70
6110;DHT22;3085;49.444;11.054;2023-06-26T11:27:32;29.80;77.80
6110;DHT22;3085;49.444;11.054;2023-06-26T11:29:58;29.80;77.20
6110;DHT22;3085;49.444;11.054;2023-06-26T11:32:27;29.90;76.30
6110;DHT22;3085;49.444;11.054;2023-06-26T11:34:54;30.00;76.50
6110;DHT22;3085;49.444;11.054;2023-06-26T11:37:21;30.00;76.30
6110;DHT22;3085;49.444;11.054;2023-06-26T11:39:49;29.90;76.40
6110;DHT22;3085;49.444;11.054;2023-06-26T11:42:16;30.00;76.90
6110;DHT22;3085;49.444;11.054;2023-06-26T11:44:43;30.20;77.40
6110;DHT22;3085;49.444;11.054;2023-06-26T11:47:14;30.20;76.90
6110;DHT22;3085;49.444;11.054;2023-06-26T11:49:43;30.50;76.90
6110;DHT22;3085;49.444;11.054;2023-06-26T11:52:10;30.30;76.20
6110;DHT22;3085;49.444;11.054;2023-06-26T11:54:37;30.30;76.10
6110;DHT22;3085;49.444;11.054;2023-06-26T11:57:05;30.30;75.70
6110;DHT22;3085;49.444;11.054;2023-06-26T11:59:34;30.30;76.20
6110;DHT22;3085;49.444;11.054;2023-06-26T12:02:05;30.40;76.30
6110;DHT22;3085;49.444;11.054;2023-06-26T12:04:32;30.50;75.90
6110;DHT22;3085;49.444;11.054;2023-06-26T12:07:01;30.50;75.80
6110;DHT22;3085;49.444;11.054;2023-06-26T12:09:29;30.70;76.10
6110;DHT22;3085;49.444;11.054;2023-06-26T12:11:59;30.80;75.70
6110;DHT22;3085;49.444;11.054;2023-06-26T12:14:28;30.60;74.30
6110;DHT22;3085;49.444;11.054;2023-06-26T12:16:55;30.50;74.30
6110;DHT22;3085;49.444;11.054;2023-06-26T12:19:25;30.70;74.80
6110;DHT22;3085;49.444;11.054;2023-06-26T12:21:53;30.70;74.80
6110;DHT22;3085;49.444;11.054;2023-06-26T12:24:23;30.70;75.40
6110;DHT22;3085;49.444;11.054;2023-06-26T12:26:54;30.70;75.80
6110;DHT22;3085;49.444;11.054;2023-06-26T12:29:31;30.60;75.50
6110;DHT22;3085;49.444;11.054;2023-06-26T12:31:58;30.70;75.90
6110;DHT22;3085;49.444;11.054;2023-06-26T12:34:28;30.60;75.20
6110;DHT22;3085;49.444;11.054;2023-06-26T12:37:00;30.70;75.40
6110;DHT22;3085;49.444;11.054;2023-06-26T12:39:27;30.90;75.70
6110;DHT22;3085;49.444;11.054;2023-06-26T12:41:56;31.00;74.20
6110;DHT22;3085;49.444;11.054;2023-06-26T12:44:26;30.90;74.10
6110;DHT22;3085;49.444;11.054;2023-06-26T12:46:56;31.00;74.70
6110;DHT22;3085;49.444;11.054;2023-06-26T12:49:30;30.80;73.90
6110;DHT22;3085;49.444;11.054;2023-06-26T12:51:58;31.00;74.70
6110;DHT22;3085;49.444;11.054;2023-06-26T12:54:25;31.20;75.20
6110;DHT22;3085;49.444;11.054;2023-06-26T12:56:52;31.20;74.80
6110;DHT22;3085;49.444;11.054;2023-06-26T12:59:19;31.20;74.30
6110;DHT22;3085;49.444;11.054;2023-06-26T13:01:45;31.20;74.30
6110;DHT22;3085;49.444;11.054;2023-06-26T13:04:13;31.40;74.50
6110;DHT22;3085;49.444;11.054;2023-06-26T13:06:40;31.30;74.10
6110;DHT22;3085;49.444;11.054;2023-06-26T13:09:07;31.40;74.80
6110;DHT22;3085;49.444;11.054;2023-06-26T13:11:35;31.50;74.40
6110;DHT22;3085;49.444;11.054;2023-06-26T13:14:02;31.40;74.40
6110;DHT22;3085;49.444;11.054;2023-06-26T13:16:29;31.30;74.80
6110;DHT22;3085;49.444;11.054;2023-06-26T13:18:58;31.30;75.80
6110;DHT22;3085;49.444;11.054;2023-06-26T13:21:26;31.40;76.90
6110;DHT22;3085;49.444;11.054;2023-06-26T13:23:53;31.60;77.50
6110;DHT22;3085;49.444;11.054;2023-06-26T13:26:21;31.50;78.00
6110;DHT22;3085;49.444;11.054;2023-06-26T13:28:48;31.70;77.10
6110;DHT22;3085;49.444;11.054;2023-06-26T13:31:15;32.40;78.70
6110;DHT22;3085;49.444;11.054;2023-06-26T13:33:41;31.50;78.50
6110;DHT22;3085;49.444;11.054;2023-06-26T13:36:10;31.40;77.80
6110;DHT22;3085;49.444;11.054;2023-06-26T13:38:38;31.30;78.20
6110;DHT22;3085;49.444;11.054;2023-06-26T13:41:05;31.30;79.00
6110;DHT22;3085;49.444;11.054;2023-06-26T13:43:31;31.20;78.80
6110;DHT22;3085;49.444;11.054;2023-06-26T13:45:58;31.20;79.60
6110;DHT22;3085;49.444;11.054;2023-06-26T13:48:25;31.20;80.50
6110;DHT22;3085;49.444;11.054;2023-06-26T13:50:53;31.20;81.10
6110;DHT22;3085;49.444;11.054;2023-06-26T13:53:20;31.20;81.70
6110;DHT22;3085;49.444;11.054;2023-06-26T13:55:48;31.20;82.40
6110;DHT22;3085;49.444;11.054;2023-06-26T13:58:15;31.30;82.60
6110;DHT22;3085;49.444;11.054;2023-06-26T14:00:42;31.40;82.50
6110;DHT22;3085;49.444;11.054;2023-06-26T14:03:11;31.50;82.30
6110;DHT22;3085;49.444;11.054;2023-06-26T14:05:37;31.20;81.50
6110;DHT22;3085;49.444;11.054;2023-06-26T14:08:06;30.60;82.00
6110;DHT22;3085;49.444;11.054;2023-06-26T14:10:33;31.40;82.80
6110;DHT22;3085;49.444;11.054;2023-06-26T14:13:03;31.40;83.30
6110;DHT22;3085;49.444;11.054;2023-06-26T14:15:30;31.40;82.70
6110;DHT22;3085;49.444;11.054;2023-06-26T14:17:57;31.60;83.30
6110;DHT22;3085;49.444;11.054;2023-06-26T14:20:24;31.40;83.10
6110;DHT22;3085;49.444;11.054;2023-06-26T14:22:51;31.20;83.00
6110;DHT22;3085;49.444;11.054;2023-06-26T14:25:17;31.40;82.90
6110;DHT22;3085;49.444;11.054;2023-06-26T14:27:44;31.20;82.90
6110;DHT22;3085;49.444;11.054;2023-06-26T14:30:13;31.20;83.30
6110;DHT22;3085;49.444;11.054;2023-06-26T14:32:40;31.20;83.30
6110;DHT22;3085;49.444;11.054;2023-06-26T14:35:07;31.30;83.20
6110;DHT22;3085;49.444;11.054;2023-06-26T14:37:36;31.30;83.70
6110;DHT22;3085;49.444;11.054;2023-06-26T14:40:05;31.40;84.10
6110;DHT22;3085;49.444;11.054;2023-06-26T14:42:32;31.40;83.10
6110;DHT22;3085;49.444;11.054;2023-06-26T14:44:59;31.40;83.80
6110;DHT22;3085;49.444;11.054;2023-06-26T14:47:27;31.50;83.60
6110;DHT22;3085;49.444;11.054;2023-06-26T14:49:54;31.40;82.80
6110;DHT22;3085;49.444;11.054;2023-06-26T14:52:21;31.40;83.90
6110;DHT22;3085;49.444;11.054;2023-06-26T14:54:47;31.30;83.80
6110;DHT22;3085;49.444;11.054;2023-06-26T14:57:14;31.30;84.50
6110;DHT22;3085;49.444;11.054;2023-06-26T14:59:42;31.30;84.20
6110;DHT22;3085;49.444;11.054;2023-06-26T15:02:08;31.40;84.60
6110;DHT22;3085;49.444;11.054;2023-06-26T15:04:37;31.30;84.70
6110;DHT22;3085;49.444;11.054;2023-06-26T15:07:04;31.30;84.40
6110;DHT22;3085;49.444;11.054;2023-06-26T15:09:31;31.40;85.10
6110;DHT22;3085;49.444;11.054;2023-06-26T15:11:58;31.40;86.10
6110;DHT22;3085;49.444;11.054;2023-06-26T15:14:25;31.30;86.70
6110;DHT22;3085;49.444;11.054;2023-06-26T15:16:52;31.20;87.90
6110;DHT22;3085;49.444;11.054;2023-06-26T15:19:18;31.00;89.50
6110;DHT22;3085;49.444;11.054;2023-06-26T15:21:46;31.10;89.80
6110;DHT22;3085;49.444;11.054;2023-06-26T15:24:13;31.10;89.90
6110;DHT22;3085;49.444;11.054;2023-06-26T15:26:40;31.10;90.20
6110;DHT22;3085;49.444;11.054;2023-06-26T15:29:07;31.10;90.60
6110;DHT22;3085;49.444;11.054;2023-06-26T15:31:34;30.70;91.30
6110;DHT22;3085;49.444;11.054;2023-06-26T15:34:01;30.20;91.90
6110;DHT22;3085;49.444;11.054;2023-06-26T15:36:28;30.10;92.00
6110;DHT22;3085;49.444;11.054;2023-06-26T15:38:56;30.20;92.20
6110;DHT22;3085;49.444;11.054;2023-06-26T15:41:23;30.00;92.20
6110;DHT22;3085;49.444;11.054;2023-06-26T15:43:50;29.90;92.50
6110;DHT22;3085;49.444;11.054;2023-06-26T15:46:16;29.80;92.70
6110;DHT22;3085;49.444;11.054;2023-06-26T15:48:43;29.70;93.00